Time;durP1;ratioP1;P1;durP2;ratioP2;P2;SDS_P1;SDS_P2;PMS_P1;PMS_P2;Temp;Humidity;BMP_temperature;BMP_pressure;BME280_temperature;BME280_humidity;BME280_pressure;Samples;Min_cycle;Max_cycle;Signal;HPM_P1;HPM_P2
2022/03/29 00:00:07;;;;;;;;;;;10.80;53.40;;;;;;5109902;28;19957;-71
2022/03/29 00:02:33;;;;;;;;;;;10.70;54.80;;;;;;5109098;28;19908;-71
2022/03/29 00:05:04;;;;;;;;;;;10.60;56.30;;;;;;5109813;28;19957;-71
2022/03/29 00:07:30;;;;;;;;;;;;;;;;;;5108942;28;19912;-72
2022/03/29 00:09:55;;;;;;;;;;;10.70;56.70;;;;;;5091335;28;19919;-71
2022/03/29 00:12:21;;;;;;;;;;;10.70;56.70;;;;;;5109661;28;19908;-71
2022/03/29 00:14:46;;;;;;;;;;;10.60;59.10;;;;;;5108845;28;19912;-72
2022/03/29 00:17:12;;;;;;;;;;;10.50;60.60;;;;;;5109514;28;19912;-71
2022/03/29 00:19:37;;;;;;;;;;;10.30;62.30;;;;;;5108773;28;19908;-71
2022/03/29 00:22:03;;;;;;;;;;;10.40;63.70;;;;;;5109568;28;19908;-72
2022/03/29 00:24:29;;;;;;;;;;;;;;;;;;5109057;28;20272;-71
2022/03/29 00:26:55;;;;;;;;;;;;;;;;;;5109099;28;19912;-71
2022/03/29 00:29:20;;;;;;;;;;;10.40;63.70;;;;;;5109303;28;20356;-71
2022/03/29 00:31:46;;;;;;;;;;;10.50;64.20;;;;;;5090322;28;19961;-71
2022/03/29 00:34:11;;;;;;;;;;;10.40;64.60;;;;;;5091202;28;19943;-71
2022/03/29 00:36:37;;;;;;;;;;;10.20;65.30;;;;;;5098082;28;19920;-72
2022/03/29 00:39:03;;;;;;;;;;;10.10;66.40;;;;;;5088674;28;19974;-70
2022/03/29 00:41:29;;;;;;;;;;;;;;;;;;5087598;28;19916;-71
2022/03/29 00:43:54;;;;;;;;;;;10.20;67.60;;;;;;5088251;28;19912;-72
2022/03/29 00:46:20;;;;;;;;;;;10.30;66.80;;;;;;5088655;28;19999;-71
2022/03/29 00:48:46;;;;;;;;;;;10.20;67.40;;;;;;5077080;28;19995;-71
2022/03/29 00:51:11;;;;;;;;;;;10.00;69.60;;;;;;5057177;28;19932;-71
2022/03/29 00:53:38;;;;;;;;;;;10.20;70.60;;;;;;5074292;28;19958;-70
2022/03/29 00:56:04;;;;;;;;;;;10.10;69.80;;;;;;5074824;28;19912;-71
2022/03/29 00:58:30;;;;;;;;;;;;;;;;;;5074720;28;19915;-71
2022/03/29 01:01:01;;;;;;;;;;;10.00;70.40;;;;;;5074625;28;19999;-71
2022/03/29 01:03:27;;;;;;;;;;;;;;;;;;5074891;28;19908;-70
2022/03/29 01:05:52;;;;;;;;;;;9.90;72.50;;;;;;5056077;28;20347;-71
2022/03/29 01:08:18;;;;;;;;;;;9.90;74.00;;;;;;5074649;28;19966;-72
2022/03/29 01:10:44;;;;;;;;;;;10.00;71.70;;;;;;5073958;28;20261;-71
2022/03/29 01:13:10;;;;;;;;;;;10.20;70.80;;;;;;5074701;28;19909;-70
2022/03/29 01:15:37;;;;;;;;;;;10.10;68.10;;;;;;5073761;28;19915;-71
2022/03/29 01:18:05;;;;;;;;;;;9.90;68.80;;;;;;5074740;28;19955;-71
2022/03/29 01:20:31;;;;;;;;;;;;;;;;;;5074381;28;19909;-71
2022/03/29 01:22:57;;;;;;;;;;;10.00;71.80;;;;;;5074068;28;19930;-71
2022/03/29 01:25:27;;;;;;;;;;;10.00;71.20;;;;;;5074487;28;20436;-71
2022/03/29 01:27:53;;;;;;;;;;;9.80;72.80;;;;;;5073695;28;20507;-72
2022/03/29 01:30:20;;;;;;;;;;;9.90;72.60;;;;;;5074449;28;19908;-71
2022/03/29 01:32:47;;;;;;;;;;;10.10;69.40;;;;;;5073651;28;20380;-71
2022/03/29 01:35:13;;;;;;;;;;;9.90;70.10;;;;;;5074356;28;19909;-72
2022/03/29 01:37:38;;;;;;;;;;;9.70;75.30;;;;;;5073185;28;19924;-71
2022/03/29 01:40:15;;;;;;;;;;;9.80;74.90;;;;;;5074055;28;19916;-71
2022/03/29 01:42:46;;;;;;;;;;;9.90;74.50;;;;;;5073298;28;19909;-72
2022/03/29 01:45:11;;;;;;;;;;;10.00;72.50;;;;;;5056189;28;19969;-72
2022/03/29 01:47:38;;;;;;;;;;;10.10;70.20;;;;;;5073332;28;20315;-72
2022/03/29 01:50:04;;;;;;;;;;;9.70;71.40;;;;;;5074071;28;19909;-71
2022/03/29 01:52:36;;;;;;;;;;;9.80;72.70;;;;;;5055929;28;19909;-72
2022/03/29 01:55:02;;;;;;;;;;;;;;;;;;5074103;28;19958;-71
2022/03/29 01:57:27;;;;;;;;;;;9.80;72.80;;;;;;5073766;28;19913;-70
2022/03/29 02:02:37;;;;;;;;;;;9.90;73.30;;;;;;5073055;28;20284;-71
2022/03/29 02:05:03;;;;;;;;;;;10.00;71.60;;;;;;5073823;28;19909;-71
2022/03/29 02:07:28;;;;;;;;;;;9.90;70.80;;;;;;5073959;28;19912;-70
2022/03/29 02:09:54;;;;;;;;;;;9.70;71.80;;;;;;5072490;28;19916;-71
2022/03/29 02:12:19;;;;;;;;;;;9.90;72.00;;;;;;5073516;28;19958;-71
2022/03/29 02:14:45;;;;;;;;;;;9.90;71.30;;;;;;5072749;28;20272;-71
2022/03/29 02:17:10;;;;;;;;;;;10.00;69.30;;;;;;5073571;28;20375;-72
2022/03/29 02:19:36;;;;;;;;;;;;;;;;;;5072875;28;20315;-71
2022/03/29 02:22:02;;;;;;;;;;;10.30;61.80;;;;;;5073195;28;19940;-71
2022/03/29 02:24:28;;;;;;;;;;;10.30;59.40;;;;;;5073338;28;20391;-71
2022/03/29 02:26:53;;;;;;;;;;;10.40;57.80;;;;;;5072452;28;20038;-71
2022/03/29 02:29:19;;;;;;;;;;;10.40;57.50;;;;;;5073328;28;19908;-71
2022/03/29 02:31:44;;;;;;;;;;;;;;;;;;5054501;28;19919;-71
2022/03/29 02:34:10;;;;;;;;;;;10.40;56.70;;;;;;5073101;28;19909;-71
2022/03/29 02:36:36;;;;;;;;;;;;;;;;;;5072412;28;19990;-72
2022/03/29 02:39:01;;;;;;;;;;;10.20;58.50;;;;;;5054463;28;19960;-71
2022/03/29 02:41:27;;;;;;;;;;;10.20;58.30;;;;;;5072954;28;19947;-71
2022/03/29 02:43:52;;;;;;;;;;;10.10;58.90;;;;;;5072147;28;20007;-71
2022/03/29 02:46:19;;;;;;;;;;;10.00;59.40;;;;;;5072853;28;20012;-70
2022/03/29 02:48:45;;;;;;;;;;;10.00;61.50;;;;;;5072093;28;20377;-71
2022/03/29 02:51:10;;;;;;;;;;;9.90;64.10;;;;;;5073036;28;20003;-71
2022/03/29 02:53:36;;;;;;;;;;;;;;;;;;5072611;28;20331;-71
2022/03/29 02:56:01;;;;;;;;;;;9.80;68.40;;;;;;5072122;28;20353;-70
2022/03/29 02:58:27;;;;;;;;;;;9.80;68.90;;;;;;5072692;28;19908;-70
2022/03/29 03:00:53;;;;;;;;;;;9.80;69.30;;;;;;5071880;28;20376;-72
2022/03/29 03:03:19;;;;;;;;;;;9.60;70.10;;;;;;5072743;28;19914;-72
2022/03/29 03:05:44;;;;;;;;;;;9.60;71.00;;;;;;5071930;28;19912;-71
2022/03/29 03:08:10;;;;;;;;;;;9.60;72.40;;;;;;5072669;28;19913;-71
2022/03/29 03:10:36;;;;;;;;;;;9.70;72.50;;;;;;5072289;28;19912;-71
2022/03/29 03:13:01;;;;;;;;;;;9.50;72.80;;;;;;5053742;28;19962;-71
2022/03/29 03:15:27;;;;;;;;;;;9.40;75.80;;;;;;5072470;28;19931;-71
2022/03/29 03:17:55;;;;;;;;;;;9.50;76.90;;;;;;5071672;28;20384;-71
2022/03/29 03:20:21;;;;;;;;;;;9.50;77.10;;;;;;5072532;28;19915;-71
2022/03/29 03:22:47;;;;;;;;;;;9.60;75.40;;;;;;5071692;28;19909;-71
2022/03/29 03:25:13;;;;;;;;;;;9.50;74.60;;;;;;5072471;28;20277;-71
2022/03/29 03:27:40;;;;;;;;;;;;;;;;;;5072067;28;19908;-71
2022/03/29 03:30:07;;;;;;;;;;;9.60;74.90;;;;;;5054169;28;19997;-72
2022/03/29 03:32:33;;;;;;;;;;;9.40;75.00;;;;;;5072222;28;19909;-71
2022/03/29 03:34:58;;;;;;;;;;;9.50;76.70;;;;;;5053484;28;20050;-71
2022/03/29 03:37:30;;;;;;;;;;;9.40;75.80;;;;;;5067067;28;19927;-72
2022/03/29 03:39:55;;;;;;;;;;;9.50;76.10;;;;;;5069948;28;19917;-71
2022/03/29 03:42:21;;;;;;;;;;;9.70;74.90;;;;;;5072253;28;19908;-71
2022/03/29 03:44:47;;;;;;;;;;;9.60;73.00;;;;;;5070156;28;19912;-71
2022/03/29 03:47:13;;;;;;;;;;;;;;;;;;5072253;28;20361;-71
2022/03/29 03:49:39;;;;;;;;;;;;;;;;;;5070922;28;19999;-71
2022/03/29 03:52:05;;;;;;;;;;;9.70;70.70;;;;;;5071592;28;19909;-71
2022/03/29 03:54:37;;;;;;;;;;;9.70;70.70;;;;;;5072074;28;19908;-71
2022/03/29 03:57:03;;;;;;;;;;;9.60;72.80;;;;;;5071325;28;19951;-71
2022/03/29 03:59:28;;;;;;;;;;;9.70;72.00;;;;;;5072088;28;19909;-71
2022/03/29 04:01:54;;;;;;;;;;;9.60;71.00;;;;;;5071355;28;19908;-71
2022/03/29 04:04:19;;;;;;;;;;;9.50;71.10;;;;;;5072048;28;19908;-71
2022/03/29 04:06:45;;;;;;;;;;;;;;;;;;5071458;28;19916;-71
2022/03/29 04:09:11;;;;;;;;;;;9.50;72.30;;;;;;5072982;28;19912;-71
2022/03/29 04:11:36;;;;;;;;;;;9.70;72.10;;;;;;5092141;28;19934;-71
2022/03/29 04:14:02;;;;;;;;;;;9.50;71.30;;;;;;5091357;28;19908;-71
2022/03/29 04:16:28;;;;;;;;;;;9.50;71.50;;;;;;5092163;28;19913;-71
2022/03/29 04:18:53;;;;;;;;;;;9.40;73.10;;;;;;5091418;28;19915;-71
2022/03/29 04:21:19;;;;;;;;;;;9.10;75.70;;;;;;5092199;28;19908;-71
2022/03/29 04:23:45;;;;;;;;;;;;;;;;;;5093614;28;19918;-71
2022/03/29 04:26:11;;;;;;;;;;;8.90;83.90;;;;;;5095956;28;20364;-71
2022/03/29 04:28:36;;;;;;;;;;;9.00;85.60;;;;;;5095855;28;19955;-71
2022/03/29 04:31:02;;;;;;;;;;;8.90;85.50;;;;;;5095157;28;19962;-72
2022/03/29 04:33:28;;;;;;;;;;;9.00;86.40;;;;;;5094397;28;19912;-72
2022/03/29 04:35:54;;;;;;;;;;;8.90;87.80;;;;;;5093330;28;19916;-71
2022/03/29 04:38:20;;;;;;;;;;;9.10;87.80;;;;;;5094576;28;20352;-71
2022/03/29 04:40:46;;;;;;;;;;;;;;;;;;5094842;28;19908;-71
2022/03/29 04:43:11;;;;;;;;;;;9.10;87.30;;;;;;5095670;28;20284;-71
2022/03/29 04:45:37;;;;;;;;;;;9.10;85.70;;;;;;5095600;28;19998;-71
2022/03/29 04:48:03;;;;;;;;;;;9.10;85.10;;;;;;5093463;28;19908;-71
2022/03/29 04:50:29;;;;;;;;;;;9.20;85.30;;;;;;5094189;28;19947;-71
2022/03/29 04:52:55;;;;;;;;;;;9.10;83.90;;;;;;5093382;28;19908;-70
2022/03/29 04:55:20;;;;;;;;;;;9.20;84.40;;;;;;5089171;28;19908;-70
2022/03/29 04:57:47;;;;;;;;;;;;;;;;;;5080989;28;20003;-71
2022/03/29 05:00:13;;;;;;;;;;;9.00;83.70;;;;;;5084709;28;19912;-71
2022/03/29 05:02:40;;;;;;;;;;;9.20;84.00;;;;;;5095319;28;19908;-71
2022/03/29 05:05:06;;;;;;;;;;;9.50;82.10;;;;;;5094357;28;20473;-71
2022/03/29 05:07:31;;;;;;;;;;;9.20;81.50;;;;;;5094943;28;20283;-71
2022/03/29 05:09:57;;;;;;;;;;;9.00;83.40;;;;;;5092871;28;19913;-71
2022/03/29 05:12:23;;;;;;;;;;;;;;;;;;5093704;28;19908;-71
2022/03/29 05:14:49;;;;;;;;;;;8.60;89.00;;;;;;5094180;28;19908;-71
2022/03/29 05:17:15;;;;;;;;;;;8.70;90.90;;;;;;5094907;28;19965;-71
2022/03/29 05:19:40;;;;;;;;;;;8.80;90.80;;;;;;5094900;28;19962;-71
2022/03/29 05:22:06;;;;;;;;;;;8.90;90.20;;;;;;5093948;28;19904;-71
2022/03/29 05:24:31;;;;;;;;;;;8.80;88.30;;;;;;5094736;28;19999;-71
2022/03/29 05:26:57;;;;;;;;;;;8.70;89.60;;;;;;5093916;28;19915;-72
2022/03/29 05:29:25;;;;;;;;;;;8.60;90.50;;;;;;5094706;28;19908;-70
2022/03/29 05:31:50;;;;;;;;;;;8.60;91.20;;;;;;5091854;28;19912;-71
2022/03/29 05:34:16;;;;;;;;;;;8.60;91.80;;;;;;5094591;28;19908;-70
2022/03/29 05:36:44;;;;;;;;;;;8.50;91.70;;;;;;5092933;28;19931;-70
2022/03/29 05:39:16;;;;;;;;;;;8.60;91.90;;;;;;5076990;28;20035;-70
2022/03/29 05:41:42;;;;;;;;;;;8.50;92.80;;;;;;5092012;28;19912;-70
2022/03/29 05:44:08;;;;;;;;;;;8.60;93.90;;;;;;5092333;28;19995;-71
2022/03/29 05:49:20;;;;;;;;;;;8.90;93.00;;;;;;5072819;28;19915;-71
2022/03/29 05:51:46;;;;;;;;;;;;;;;;;;5073971;28;19912;-70
2022/03/29 05:54:12;;;;;;;;;;;8.90;92.00;;;;;;5073318;28;20353;-71
2022/03/29 05:56:37;;;;;;;;;;;8.80;92.60;;;;;;5073835;28;19912;-70
2022/03/29 05:59:04;;;;;;;;;;;8.80;93.20;;;;;;5073064;28;19908;-69
2022/03/29 06:01:30;;;;;;;;;;;8.80;93.20;;;;;;5073840;28;19943;-73
2022/03/29 06:03:55;;;;;;;;;;;8.80;93.20;;;;;;5072972;28;19944;-70
2022/03/29 06:06:21;;;;;;;;;;;8.90;93.20;;;;;;5073767;28;20425;-70
2022/03/29 06:08:48;;;;;;;;;;;;;;;;;;5073709;28;19912;-73
2022/03/29 06:11:14;;;;;;;;;;;9.00;92.60;;;;;;5086515;28;19908;-70
2022/03/29 06:13:40;;;;;;;;;;;9.10;92.60;;;;;;5094026;28;19999;-72
2022/03/29 06:16:05;;;;;;;;;;;9.20;92.30;;;;;;5093014;28;20003;-74
2022/03/29 06:18:31;;;;;;;;;;;;;;;;;;5092557;28;19915;-69
2022/03/29 06:20:57;;;;;;;;;;;8.80;93.30;;;;;;5091687;28;20475;-70
2022/03/29 06:23:23;;;;;;;;;;;9.00;94.10;;;;;;5093569;28;19912;-67
2022/03/29 06:25:50;;;;;;;;;;;;;;;;;;5093519;28;19908;-70
2022/03/29 06:28:16;;;;;;;;;;;9.20;93.00;;;;;;5089074;28;19912;-70
2022/03/29 06:30:43;;;;;;;;;;;;;;;;;;5082331;28;19961;-70
2022/03/29 06:33:10;;;;;;;;;;;9.40;91.20;;;;;;5072273;28;20569;-71
2022/03/29 06:35:38;;;;;;;;;;;;;;;;;;5084064;28;19926;-70
2022/03/29 06:38:04;;;;;;;;;;;9.40;90.10;;;;;;5063858;28;20434;-71
2022/03/29 06:40:30;;;;;;;;;;;;;;;;;;5062624;28;19912;-70
2022/03/29 06:42:57;;;;;;;;;;;;;;;;;;5062852;28;20581;-70
2022/03/29 06:45:23;;;;;;;;;;;9.60;87.60;;;;;;5061510;28;19909;-71
2022/03/29 06:47:49;;;;;;;;;;;;;;;;;;5060345;28;19909;-70
2022/03/29 06:50:15;;;;;;;;;;;9.50;85.50;;;;;;5061708;28;19912;-70
2022/03/29 06:52:42;;;;;;;;;;;9.50;86.00;;;;;;5066123;28;19916;-70
2022/03/29 06:55:08;;;;;;;;;;;;;;;;;;5065142;28;19940;-70
2022/03/29 06:57:34;;;;;;;;;;;;;;;;;;5050845;28;20380;-71
2022/03/29 07:00:36;;;;;;;;;;;9.70;84.90;;;;;;5068221;28;19913;-70
2022/03/29 07:03:01;;;;;;;;;;;9.90;84.00;;;;;;4981022;28;19937;-70
2022/03/29 07:05:27;;;;;;;;;;;9.90;81.00;;;;;;5045962;28;19913;-70
2022/03/29 07:07:53;;;;;;;;;;;;;;;;;;5058567;28;19924;-71
2022/03/29 07:13:03;;;;;;;;;;;9.80;81.40;;;;;;5059794;28;19915;-71
2022/03/29 07:15:28;;;;;;;;;;;9.90;80.40;;;;;;5061348;28;19909;-71
2022/03/29 07:17:55;;;;;;;;;;;10.10;80.20;;;;;;5042970;28;19913;-70
2022/03/29 07:20:21;;;;;;;;;;;10.00;78.20;;;;;;5059970;28;20524;-70
2022/03/29 07:22:47;;;;;;;;;;;;;;;;;;5061522;28;19920;-70
2022/03/29 07:25:13;;;;;;;;;;;;;;;;;;5045463;28;20245;-70
2022/03/29 07:27:39;;;;;;;;;;;10.10;77.30;;;;;;5069735;28;20386;-70
2022/03/29 07:30:05;;;;;;;;;;;10.30;76.40;;;;;;5050677;28;20353;-70
2022/03/29 07:32:31;;;;;;;;;;;;;;;;;;5068884;28;19912;-68
2022/03/29 07:34:56;;;;;;;;;;;11.50;73.00;;;;;;5068473;28;20002;-67
2022/03/29 07:37:22;;;;;;;;;;;12.10;69.70;;;;;;5068729;28;19928;-67
2022/03/29 07:39:48;;;;;;;;;;;12.60;64.20;;;;;;5070905;28;19966;-67
2022/03/29 07:42:14;;;;;;;;;;;12.50;55.90;;;;;;5071172;28;19936;-67
2022/03/29 07:44:40;;;;;;;;;;;12.80;55.20;;;;;;5072136;28;19913;-67
2022/03/29 07:47:05;;;;;;;;;;;12.60;45.10;;;;;;5068194;28;19936;-66
2022/03/29 07:49:31;;;;;;;;;;;12.30;51.00;;;;;;5069535;28;20322;-64
2022/03/29 07:51:56;;;;;;;;;;;11.80;53.70;;;;;;5069584;28;19919;-68
2022/03/29 07:54:22;;;;;;;;;;;;;;;;;;5072084;28;19952;-67
2022/03/29 07:56:48;;;;;;;;;;;12.60;49.40;;;;;;5069555;28;20371;-69
2022/03/29 07:59:13;;;;;;;;;;;12.60;44.00;;;;;;5074122;28;19908;-69
2022/03/29 08:01:39;;;;;;;;;;;12.50;39.60;;;;;;5068759;28;20426;-66
2022/03/29 08:04:04;;;;;;;;;;;12.00;42.60;;;;;;5074654;28;19917;-65
2022/03/29 08:06:30;;;;;;;;;;;11.90;45.00;;;;;;5075854;28;19952;-72
2022/03/29 08:08:56;;;;;;;;;;;;;;;;;;5072216;28;19916;-66
2022/03/29 08:11:22;;;;;;;;;;;12.70;44.60;;;;;;5075086;28;20003;-72
2022/03/29 08:13:48;;;;;;;;;;;;;;;;;;5075356;28;19912;-67
2022/03/29 08:16:15;;;;;;;;;;;12.30;32.60;;;;;;5076598;28;20368;-66
2022/03/29 08:18:41;;;;;;;;;;;;;;;;;;5077041;28;20346;-69
2022/03/29 08:21:48;;;;;;;;;;;11.20;47.10;;;;;;5076052;28;19908;-68
2022/03/29 08:23:52;;;;;;;;;;;;;;;;;;5076555;28;19909;-70
2022/03/29 08:26:18;;;;;;;;;;;11.10;56.40;;;;;;5073333;28;19931;-70
2022/03/29 08:28:44;;;;;;;;;;;;;;;;;;5075307;28;20054;-70
2022/03/29 08:31:09;;;;;;;;;;;11.00;59.70;;;;;;5074691;28;19948;-70
2022/03/29 08:33:35;;;;;;;;;;;11.00;60.80;;;;;;5075461;28;19912;-70
2022/03/29 08:36:00;;;;;;;;;;;11.00;60.00;;;;;;5074227;28;19923;-70
2022/03/29 08:38:27;;;;;;;;;;;;;;;;;;5074804;28;20347;-70
2022/03/29 08:40:53;;;;;;;;;;;;;;;;;;5056482;28;19908;-71
2022/03/29 08:43:19;;;;;;;;;;;11.10;60.70;;;;;;5075337;28;20379;-70
2022/03/29 08:45:48;;;;;;;;;;;11.00;63.60;;;;;;5075252;28;19909;-70
2022/03/29 08:48:14;;;;;;;;;;;11.00;62.90;;;;;;5074397;28;20023;-70
2022/03/29 08:50:40;;;;;;;;;;;11.30;60.70;;;;;;5075161;28;19963;-70
2022/03/29 08:53:07;;;;;;;;;;;;;;;;;;5074298;28;19912;-70
2022/03/29 08:55:33;;;;;;;;;;;11.60;59.40;;;;;;5075061;28;19908;-70
2022/03/29 08:57:58;;;;;;;;;;;11.80;56.00;;;;;;5073942;28;20257;-69
2022/03/29 09:00:24;;;;;;;;;;;12.00;50.70;;;;;;5074943;28;19915;-70
2022/03/29 09:02:50;;;;;;;;;;;12.30;48.20;;;;;;5074965;28;20374;-70
2022/03/29 09:05:20;;;;;;;;;;;12.50;45.60;;;;;;5056149;28;19917;-70
2022/03/29 09:07:50;;;;;;;;;;;12.90;38.90;;;;;;5075295;28;20050;-70
2022/03/29 09:10:16;;;;;;;;;;;13.00;29.80;;;;;;5073503;28;19958;-70
2022/03/29 09:12:42;;;;;;;;;;;13.20;26.30;;;;;;5074710;28;19919;-70
2022/03/29 09:15:09;;;;;;;;;;;;;;;;;;5052823;28;19913;-70
2022/03/29 09:17:35;;;;;;;;;;;13.00;20.30;;;;;;5063847;28;19924;-70
2022/03/29 09:20:02;;;;;;;;;;;;;;;;;;5053134;28;19913;-70
2022/03/29 09:22:35;;;;;;;;;;;13.40;21.40;;;;;;5035814;28;20373;-70
2022/03/29 09:25:01;;;;;;;;;;;13.20;17.80;;;;;;5052917;28;19915;-70
2022/03/29 09:27:26;;;;;;;;;;;13.10;20.90;;;;;;5054004;28;19909;-70
2022/03/29 09:29:52;;;;;;;;;;;;;;;;;;5054298;28;19999;-71
2022/03/29 09:32:18;;;;;;;;;;;13.50;12.70;;;;;;5070963;28;19915;-70
2022/03/29 09:35:02;;;;;;;;;;;13.60;13.90;;;;;;5076514;28;19909;-69
2022/03/29 09:37:34;;;;;;;;;;;13.60;5.20;;;;;;5074450;28;19960;-68
2022/03/29 09:40:00;;;;;;;;;;;13.50;10.60;;;;;;5075408;28;20377;-71
2022/03/29 09:42:27;;;;;;;;;;;13.40;12.30;;;;;;5074659;28;19919;-70
2022/03/29 09:44:54;;;;;;;;;;;;;;;;;;5076254;28;19909;-70
2022/03/29 09:47:21;;;;;;;;;;;12.80;22.40;;;;;;5075749;28;19970;-70
2022/03/29 09:49:49;;;;;;;;;;;13.10;21.50;;;;;;5055983;28;19908;-70
2022/03/29 09:52:16;;;;;;;;;;;13.00;20.30;;;;;;5073191;28;20494;-70
2022/03/29 09:54:42;;;;;;;;;;;13.20;18.90;;;;;;5073891;28;20372;-70
2022/03/29 09:57:09;;;;;;;;;;;13.40;19.30;;;;;;5055102;28;19919;-70
2022/03/29 09:59:37;;;;;;;;;;;;;;;;;;5074042;28;19916;-71
2022/03/29 10:02:03;;;;;;;;;;;13.50;12.50;;;;;;5072673;28;20058;-70
2022/03/29 10:04:29;;;;;;;;;;;13.60;9.10;;;;;;5073657;28;20403;-70
2022/03/29 10:06:55;;;;;;;;;;;;;;;;;;5068139;28;19913;-71
2022/03/29 10:09:25;;;;;;;;;;;13.90;1.00;;;;;;5066161;28;19923;-70
2022/03/29 10:11:52;;;;;;;;;;;;;;;;;;5075640;28;20324;-71
2022/03/29 10:14:21;;;;;;;;;;;14.40;1.00;;;;;;5072603;28;20023;-70
2022/03/29 10:16:47;;;;;;;;;;;14.40;1.00;;;;;;5073313;28;20356;-69
2022/03/29 10:19:13;;;;;;;;;;;14.60;1.00;;;;;;5073251;28;19954;-68
2022/03/29 10:21:39;;;;;;;;;;;;;;;;;;5066639;28;19916;-66
2022/03/29 10:24:04;;;;;;;;;;;;;;;;;;5061161;28;19931;-69
2022/03/29 10:26:31;;;;;;;;;;;14.60;1.00;;;;;;5062845;28;20358;-70
2022/03/29 10:28:57;;;;;;;;;;;;;;;;;;5068205;28;20034;-72
2022/03/29 10:31:23;;;;;;;;;;;;;;;;;;5062774;28;20031;-72
2022/03/29 10:34:08;;;;;;;;;;;14.10;1.00;;;;;;5043349;28;20003;-69
2022/03/29 10:36:54;;;;;;;;;;;14.20;1.00;;;;;;5066324;28;19920;-72
2022/03/29 10:39:20;;;;;;;;;;;;;;;;;;5070085;28;19960;-71
2022/03/29 10:41:46;;;;;;;;;;;;;;;;;;5066809;28;19913;-71
2022/03/29 10:44:14;;;;;;;;;;;14.70;1.00;;;;;;5068786;28;19926;-72
2022/03/29 10:46:40;;;;;;;;;;;;;;;;;;5051513;28;19916;-71
2022/03/29 10:49:14;;;;;;;;;;;15.10;1.00;;;;;;5068699;28;20304;-72
2022/03/29 10:51:40;;;;;;;;;;;;;;;;;;5069410;28;19916;-71
2022/03/29 10:54:26;;;;;;;;;;;15.30;1.00;;;;;;5068339;28;19917;-71
2022/03/29 10:56:52;;;;;;;;;;;;;;;;;;5068744;28;19963;-71
2022/03/29 10:59:18;;;;;;;;;;;;;;;;;;5068473;28;19952;-72
2022/03/29 11:01:44;;;;;;;;;;;;;;;;;;5069256;28;20358;-72
2022/03/29 11:04:10;;;;;;;;;;;;;;;;;;5066743;28;19977;-72
2022/03/29 11:06:36;;;;;;;;;;;14.60;1.00;;;;;;5068676;28;19916;-72
2022/03/29 11:09:02;;;;;;;;;;;;;;;;;;5065375;28;19912;-72
2022/03/29 11:11:27;;;;;;;;;;;;;;;;;;5048014;28;19912;-72
2022/03/29 11:13:53;;;;;;;;;;;;;;;;;;5068614;28;20352;-70
2022/03/29 11:16:19;;;;;;;;;;;;;;;;;;5068085;28;19916;-70
2022/03/29 11:18:45;;;;;;;;;;;15.30;1.00;;;;;;5064869;28;19959;-71
2022/03/29 11:21:27;;;;;;;;;;;15.30;1.00;;;;;;5048312;28;19916;-74
2022/03/29 11:23:53;;;;;;;;;;;;;;;;;;5065176;28;19913;-70
2022/03/29 11:26:19;;;;;;;;;;;;;;;;;;5068268;28;20379;-70
2022/03/29 11:28:45;;;;;;;;;;;;;;;;;;5058824;28;20464;-70
2022/03/29 11:31:11;;;;;;;;;;;;;;;;;;5066785;28;20047;-70
2022/03/29 11:33:36;;;;;;;;;;;16.10;1.00;;;;;;5062795;28;19958;-70
2022/03/29 11:36:02;;;;;;;;;;;;;;;;;;5044337;28;19923;-71
2022/03/29 11:38:28;;;;;;;;;;;;;;;;;;5069172;28;19916;-70
2022/03/29 11:40:54;;;;;;;;;;;;;;;;;;5068491;28;19919;-71
2022/03/29 11:43:20;;;;;;;;;;;;;;;;;;5068172;28;20352;-70
2022/03/29 11:45:49;;;;;;;;;;;;;;;;;;5075788;28;20003;-70
2022/03/29 11:48:18;;;;;;;;;;;15.30;1.00;;;;;;5071850;28;19913;-71
2022/03/29 11:50:44;;;;;;;;;;;;;;;;;;5068786;28;19908;-71
2022/03/29 11:53:10;;;;;;;;;;;;;;;;;;5086971;28;19919;-70
2022/03/29 11:55:36;;;;;;;;;;;;;;;;;;5085305;28;19913;-70
2022/03/29 11:58:02;;;;;;;;;;;;;;;;;;5087101;28;20368;-71
2022/03/29 12:00:28;;;;;;;;;;;;;;;;;;5088639;28;19939;-70
2022/03/29 12:02:54;;;;;;;;;;;;;;;;;;5081716;28;20410;-71
2022/03/29 12:05:20;;;;;;;;;;;;;;;;;;5081751;28;19912;-70
2022/03/29 12:07:46;;;;;;;;;;;15.40;1.00;;;;;;5087907;28;19916;-70
2022/03/29 12:10:12;;;;;;;;;;;15.30;1.00;;;;;;5087848;28;20322;-72
2022/03/29 12:12:38;;;;;;;;;;;15.00;1.00;;;;;;5090884;28;19915;-72
2022/03/29 12:15:04;;;;;;;;;;;;;;;;;;5091391;28;19908;-72
2022/03/29 12:17:30;;;;;;;;;;;;;;;;;;5092070;28;19919;-73
2022/03/29 12:19:57;;;;;;;;;;;;;;;;;;5088804;28;19922;-72
2022/03/29 12:22:26;;;;;;;;;;;;;;;;;;5088004;28;20083;-71
2022/03/29 12:24:55;;;;;;;;;;;;;;;;;;5088452;28;19934;-70
2022/03/29 12:27:21;;;;;;;;;;;;;;;;;;5087400;28;19912;-69
2022/03/29 12:29:47;;;;;;;;;;;;;;;;;;5086785;28;19990;-70
2022/03/29 12:32:13;;;;;;;;;;;14.50;1.00;;;;;;5085861;28;19915;-70
2022/03/29 12:34:39;;;;;;;;;;;14.40;1.00;;;;;;5091898;28;19908;-70
2022/03/29 12:37:05;;;;;;;;;;;;;;;;;;5077323;28;20333;-71
2022/03/29 12:39:31;;;;;;;;;;;13.80;1.00;;;;;;5071594;28;19913;-70
2022/03/29 12:41:57;;;;;;;;;;;13.70;1.00;;;;;;5071676;28;20009;-70
2022/03/29 12:44:23;;;;;;;;;;;;;;;;;;5072354;28;19994;-70
2022/03/29 12:46:48;;;;;;;;;;;;;;;;;;5075212;28;19916;-70
2022/03/29 12:49:14;;;;;;;;;;;;;;;;;;5074226;28;20258;-70
2022/03/29 12:51:40;;;;;;;;;;;13.60;1.00;;;;;;5075167;28;19914;-70
2022/03/29 12:54:06;;;;;;;;;;;;;;;;;;5074391;28;19951;-70
2022/03/29 12:56:44;;;;;;;;;;;13.80;1.00;;;;;;5057018;28;19978;-70
2022/03/29 12:59:26;;;;;;;;;;;13.60;1.00;;;;;;5074295;28;19958;-70
2022/03/29 13:01:52;;;;;;;;;;;13.20;1.00;;;;;;5074954;28;19966;-70
2022/03/29 13:04:17;;;;;;;;;;;13.60;1.00;;;;;;5074136;28;19912;-70
2022/03/29 13:06:44;;;;;;;;;;;13.50;1.00;;;;;;5074755;28;20288;-70
2022/03/29 13:09:14;;;;;;;;;;;13.60;1.00;;;;;;5074018;28;20329;-70
2022/03/29 13:11:40;;;;;;;;;;;13.50;1.00;;;;;;5075058;28;19955;-70
2022/03/29 13:14:06;;;;;;;;;;;;;;;;;;5074336;28;19913;-70
2022/03/29 13:16:32;;;;;;;;;;;13.60;1.00;;;;;;5074400;28;19918;-70
2022/03/29 13:18:58;;;;;;;;;;;13.50;1.00;;;;;;5074886;28;19909;-70
2022/03/29 13:21:23;;;;;;;;;;;;;;;;;;5073066;28;20230;-70
2022/03/29 13:23:53;;;;;;;;;;;13.50;1.00;;;;;;5074565;28;20395;-70
2022/03/29 13:26:26;;;;;;;;;;;14.10;1.00;;;;;;5073524;28;19908;-70
2022/03/29 13:28:53;;;;;;;;;;;14.20;1.00;;;;;;5074599;28;19908;-70
2022/03/29 13:31:19;;;;;;;;;;;14.40;1.00;;;;;;5055955;28;19916;-70
2022/03/29 13:33:46;;;;;;;;;;;14.10;1.00;;;;;;5074635;28;19916;-70
2022/03/29 13:36:13;;;;;;;;;;;14.30;1.00;;;;;;5073377;28;20368;-70
2022/03/29 13:38:40;;;;;;;;;;;13.90;1.00;;;;;;5074489;28;20284;-70
2022/03/29 13:41:06;;;;;;;;;;;;;;;;;;5074003;28;19909;-70
2022/03/29 13:43:33;;;;;;;;;;;14.80;1.00;;;;;;5073759;28;19958;-70
2022/03/29 13:45:59;;;;;;;;;;;14.60;1.00;;;;;;5074169;28;19908;-70
2022/03/29 13:48:25;;;;;;;;;;;;;;;;;;5073945;28;19908;-70
2022/03/29 13:50:51;;;;;;;;;;;;;;;;;;5074056;28;19962;-70
2022/03/29 13:53:20;;;;;;;;;;;13.90;1.00;;;;;;5073256;28;20364;-71
2022/03/29 13:55:46;;;;;;;;;;;14.10;1.00;;;;;;5073848;28;19912;-70
2022/03/29 13:58:12;;;;;;;;;;;14.00;1.00;;;;;;5073064;28;19912;-70
2022/03/29 14:00:37;;;;;;;;;;;13.80;1.00;;;;;;5055928;28;19908;-70
2022/03/29 14:03:05;;;;;;;;;;;13.60;1.00;;;;;;5055880;28;19908;-70
2022/03/29 14:05:31;;;;;;;;;;;13.50;1.00;;;;;;5072914;28;20428;-70
2022/03/29 14:07:57;;;;;;;;;;;13.60;1.00;;;;;;5073662;28;20005;-70
2022/03/29 14:10:23;;;;;;;;;;;13.40;1.00;;;;;;5054861;28;19909;-70
2022/03/29 14:12:48;;;;;;;;;;;13.40;1.00;;;;;;5073575;28;20391;-70
2022/03/29 14:15:15;;;;;;;;;;;13.90;1.00;;;;;;5054843;28;19909;-70
2022/03/29 14:17:40;;;;;;;;;;;13.90;1.00;;;;;;5073433;28;19963;-70
2022/03/29 14:20:06;;;;;;;;;;;14.20;1.00;;;;;;5073491;28;19943;-71
2022/03/29 14:22:32;;;;;;;;;;;14.30;1.00;;;;;;5054605;28;19909;-70
2022/03/29 14:24:58;;;;;;;;;;;14.20;1.00;;;;;;5073582;28;19936;-70
2022/03/29 14:27:24;;;;;;;;;;;14.00;1.00;;;;;;5072503;28;20373;-70
2022/03/29 14:29:50;;;;;;;;;;;14.00;1.00;;;;;;5073279;28;19999;-70
2022/03/29 14:32:15;;;;;;;;;;;14.30;1.00;;;;;;5072426;28;19912;-71
2022/03/29 14:34:41;;;;;;;;;;;14.50;1.00;;;;;;5073113;28;19908;-70
2022/03/29 14:37:06;;;;;;;;;;;14.50;1.00;;;;;;5079096;28;19920;-70
2022/03/29 14:39:33;;;;;;;;;;;14.70;1.00;;;;;;5092576;28;19912;-70
2022/03/29 14:41:59;;;;;;;;;;;14.70;1.00;;;;;;5093271;28;19908;-70
2022/03/29 14:44:25;;;;;;;;;;;14.40;1.00;;;;;;5092457;28;19908;-70
2022/03/29 14:46:56;;;;;;;;;;;14.30;1.00;;;;;;5093466;28;19963;-70
2022/03/29 14:49:22;;;;;;;;;;;;;;;;;;5092473;28;20384;-70
2022/03/29 14:51:48;;;;;;;;;;;13.80;1.00;;;;;;5093149;28;19908;-70
2022/03/29 14:54:14;;;;;;;;;;;;;;;;;;5092299;28;19915;-70
2022/03/29 14:56:39;;;;;;;;;;;13.90;1.00;;;;;;5091662;28;19935;-70
2022/03/29 14:59:05;;;;;;;;;;;13.70;1.00;;;;;;5091704;28;20004;-70
2022/03/29 15:01:31;;;;;;;;;;;;;;;;;;5090890;28;19908;-70
2022/03/29 15:03:56;;;;;;;;;;;14.10;1.00;;;;;;5091632;28;20280;-70